createdAt,value
2017-11-23T00:02:25.885Z,99717
2017-11-23T00:04:55.839Z,99710
2017-11-23T00:07:25.018Z,99715
2017-11-23T00:09:55.000Z,99718
2017-11-23T00:12:24.163Z,99717
2017-11-23T00:14:53.339Z,99723
2017-11-23T00:17:23.718Z,99725
2017-11-23T00:19:53.721Z,99721
2017-11-23T00:22:23.035Z,99717
2017-11-23T00:24:52.452Z,99720
2017-11-23T00:27:21.854Z,99723
2017-11-23T00:29:51.315Z,99732
2017-11-23T00:32:22.996Z,99722
2017-11-23T00:34:52.395Z,99727
2017-11-23T00:37:21.922Z,99722
2017-11-23T00:39:51.359Z,99720
2017-11-23T00:42:20.817Z,99717
2017-11-23T00:44:49.999Z,99715
2017-11-23T00:47:19.899Z,99709
2017-11-23T00:49:49.120Z,99705
2017-11-23T00:52:18.244Z,99708
2017-11-23T00:54:48.197Z,99698
2017-11-23T00:57:18.113Z,99703
2017-11-23T00:59:47.289Z,99709
2017-11-23T01:02:17.197Z,99716
2017-11-23T01:04:46.359Z,99716
2017-11-23T01:07:15.516Z,99710
2017-11-23T01:09:44.669Z,99711
2017-11-23T01:12:13.887Z,99696
2017-11-23T01:14:43.044Z,99693
2017-11-23T01:17:12.468Z,99689
2017-11-23T01:19:41.920Z,99678
2017-11-23T01:22:16.607Z,99676
2017-11-23T01:24:45.791Z,99660
2017-11-23T01:27:15.701Z,99674
2017-11-23T01:29:44.929Z,99675
2017-11-23T01:32:14.528Z,99666
2017-11-23T01:34:45.687Z,99680
2017-11-23T01:37:14.828Z,99696
2017-11-23T01:39:44.740Z,99707
2017-11-23T01:42:14.760Z,99702
2017-11-23T01:44:45.881Z,99683
2017-11-23T01:47:14.994Z,99682
2017-11-23T01:49:44.186Z,99675
2017-11-23T01:52:13.380Z,99682
2017-11-23T01:54:42.500Z,99686
2017-11-23T01:57:11.701Z,99677
2017-11-23T01:59:40.890Z,99684
2017-11-23T02:02:10.786Z,99683
2017-11-23T02:04:39.914Z,99660
2017-11-23T02:07:09.001Z,99659
2017-11-23T02:09:38.168Z,99656
2017-11-23T02:12:07.495Z,99668
2017-11-23T02:14:36.776Z,99657
2017-11-23T02:17:07.664Z,99652
2017-11-23T02:19:36.882Z,99649
2017-11-23T02:22:06.041Z,99639
2017-11-23T02:24:35.236Z,99642
2017-11-23T02:27:04.579Z,99633
2017-11-23T02:29:33.731Z,99658
2017-11-23T02:32:03.719Z,99636
2017-11-23T02:34:34.872Z,99636
2017-11-23T02:37:04.062Z,99640
2017-11-23T02:39:34.249Z,99650
2017-11-23T02:42:04.366Z,99647
2017-11-23T02:44:33.506Z,99635
2017-11-23T02:47:02.658Z,99645
2017-11-23T02:49:32.808Z,99637
2017-11-23T02:52:03.183Z,99635
2017-11-23T02:54:32.348Z,99632
2017-11-23T02:57:02.280Z,99636
2017-11-23T02:59:32.247Z,99651
2017-11-23T03:02:01.390Z,99655
2017-11-23T03:04:31.573Z,99645
2017-11-23T03:07:00.768Z,99641
2017-11-23T03:09:29.908Z,99639
2017-11-23T03:11:59.457Z,99633
2017-11-23T03:14:28.712Z,99629
2017-11-23T03:16:57.840Z,99634
2017-11-23T03:19:27.915Z,99626
2017-11-23T03:21:57.434Z,99629
2017-11-23T03:24:26.696Z,99623
2017-11-23T03:26:55.876Z,99619
2017-11-23T03:29:25.069Z,99617
2017-11-23T03:31:54.975Z,99617
2017-11-23T03:34:24.172Z,99611
2017-11-23T03:36:53.369Z,99607
2017-11-23T03:39:22.547Z,99603
2017-11-23T03:41:55.353Z,99596
2017-11-23T03:44:24.550Z,99590
2017-11-23T03:46:54.543Z,99588
2017-11-23T03:49:24.258Z,99589
2017-11-23T03:51:55.141Z,99582
2017-11-23T03:54:25.140Z,99577
2017-11-23T03:56:55.231Z,99567
2017-11-23T03:59:24.347Z,99560
2017-11-23T04:01:54.290Z,99559
2017-11-23T04:04:23.446Z,99556
2017-11-23T04:06:52.544Z,99559
2017-11-23T04:09:21.770Z,99554
2017-11-23T04:11:51.059Z,99553
2017-11-23T04:14:20.240Z,99547
2017-11-23T04:16:49.558Z,99533
2017-11-23T04:19:18.746Z,99540
2017-11-23T04:21:47.847Z,99540
2017-11-23T04:24:17.251Z,99534
2017-11-23T04:26:46.383Z,99532
2017-11-23T04:29:15.508Z,99536
2017-11-23T04:31:44.679Z,99547
2017-11-23T04:34:15.545Z,99547
2017-11-23T04:36:44.671Z,99545
2017-11-23T04:39:14.632Z,99536
2017-11-23T04:41:43.762Z,99536
2017-11-23T04:44:12.923Z,99542
2017-11-23T04:46:42.099Z,99535
2017-11-23T04:49:11.220Z,99519
2017-11-23T04:51:41.133Z,99535
2017-11-23T04:54:11.993Z,99550
2017-11-23T04:56:41.118Z,99541
2017-11-23T04:59:10.212Z,99534
2017-11-23T05:01:39.351Z,99530
2017-11-23T05:04:08.475Z,99521
2017-11-23T05:06:37.623Z,99506
2017-11-23T05:09:07.242Z,99501
2017-11-23T05:11:37.158Z,99503
2017-11-23T05:14:06.412Z,99504
2017-11-23T05:16:35.562Z,99504
2017-11-23T05:19:04.672Z,99506
2017-11-23T05:21:33.869Z,99501
2017-11-23T05:24:03.201Z,99500
2017-11-23T05:26:32.376Z,99494
2017-11-23T05:29:01.509Z,99487
2017-11-23T05:31:30.651Z,99487
2017-11-23T05:34:00.513Z,99485
2017-11-23T05:36:29.623Z,99486
2017-11-23T05:38:59.695Z,99483
2017-11-23T05:41:29.110Z,99492
2017-11-23T05:43:59.095Z,99493
2017-11-23T05:46:28.350Z,99489
2017-11-23T05:48:57.509Z,99490
2017-11-23T05:51:27.403Z,99490
2017-11-23T05:53:57.362Z,99479
2017-11-23T05:56:27.463Z,99485
2017-11-23T05:58:56.712Z,99489
2017-11-23T06:01:26.225Z,99479
2017-11-23T06:03:55.436Z,99481
2017-11-23T06:06:24.995Z,99475
2017-11-23T06:08:54.241Z,99473
2017-11-23T06:11:23.522Z,99469
2017-11-23T06:13:52.698Z,99480
2017-11-23T06:16:22.448Z,99474
2017-11-23T06:18:51.648Z,99493
2017-11-23T06:21:20.988Z,99497
2017-11-23T06:23:50.871Z,99496
2017-11-23T06:26:20.044Z,99510
2017-11-23T06:28:49.205Z,99503
2017-11-23T06:31:18.434Z,99506
2017-11-23T06:33:47.572Z,99507
2017-11-23T06:36:16.693Z,99511
2017-11-23T06:38:46.950Z,99508
2017-11-23T06:41:16.048Z,99500
2017-11-23T06:43:45.945Z,99510
2017-11-23T06:46:15.157Z,99509
2017-11-23T06:48:44.339Z,99503
2017-11-23T06:51:13.467Z,99511
2017-11-23T06:53:43.075Z,99502
2017-11-23T06:56:12.274Z,99508
2017-11-23T06:58:41.372Z,99513
2017-11-23T07:01:12.102Z,99506
2017-11-23T07:03:41.200Z,99500
2017-11-23T07:06:11.352Z,99486
2017-11-23T07:08:40.498Z,99486
2017-11-23T07:11:09.612Z,99488
2017-11-23T07:13:38.808Z,99482
2017-11-23T07:16:08.072Z,99482
2017-11-23T07:18:37.828Z,99481
2017-11-23T07:21:07.052Z,99477
2017-11-23T07:23:36.989Z,99476
2017-11-23T07:26:06.124Z,99470
2017-11-23T07:28:35.291Z,99484
2017-11-23T07:31:04.922Z,99476
2017-11-23T07:33:34.014Z,99466
2017-11-23T07:36:03.130Z,99462
2017-11-23T07:38:33.109Z,99471
2017-11-23T07:41:03.065Z,99461
2017-11-23T07:43:32.401Z,99465
2017-11-23T07:46:01.874Z,99468
2017-11-23T07:48:31.068Z,99477
2017-11-23T07:51:00.245Z,99472
2017-11-23T07:53:29.467Z,99467
2017-11-23T07:55:58.770Z,99470
2017-11-23T07:58:28.015Z,99461
2017-11-23T08:00:57.985Z,99456
2017-11-23T08:03:27.304Z,99455
2017-11-23T08:05:56.497Z,99462
2017-11-23T08:08:25.702Z,99449
2017-11-23T08:10:54.921Z,99450
2017-11-23T08:13:24.130Z,99449
2017-11-23T08:15:53.775Z,99448
2017-11-23T08:18:23.091Z,99460
2017-11-23T08:20:52.392Z,99443
2017-11-23T08:23:21.554Z,99452
2017-11-23T08:25:50.902Z,99438
2017-11-23T08:28:20.092Z,99479
2017-11-23T08:30:49.713Z,99477
2017-11-23T08:33:18.935Z,99478
2017-11-23T08:35:48.075Z,99467
2017-11-23T08:38:17.580Z,99463
2017-11-23T08:40:46.737Z,99435
2017-11-23T08:43:16.708Z,99428
2017-11-23T08:45:46.911Z,99447
2017-11-23T08:48:16.033Z,99447
2017-11-23T08:50:45.189Z,99458
2017-11-23T08:53:17.286Z,99445
2017-11-23T08:55:52.938Z,99428
2017-11-23T08:58:22.445Z,99452
2017-11-23T09:00:51.642Z,99440
2017-11-23T09:03:20.926Z,99438
2017-11-23T09:05:50.656Z,99429
2017-11-23T09:08:20.773Z,99440
2017-11-23T09:10:50.056Z,99437
2017-11-23T09:13:19.444Z,99442
2017-11-23T09:15:48.573Z,99443
2017-11-23T09:18:17.713Z,99426
2017-11-23T09:20:46.923Z,99407
2017-11-23T09:23:16.050Z,99409
2017-11-23T09:25:45.144Z,99401
2017-11-23T09:28:14.457Z,99402
2017-11-23T09:30:43.623Z,99402
2017-11-23T09:33:12.743Z,99402
2017-11-23T09:35:42.008Z,99394
2017-11-23T09:38:21.083Z,99391
2017-11-23T09:40:50.393Z,99394
2017-11-23T09:43:19.615Z,99385
2017-11-23T09:45:48.889Z,99410
2017-11-23T09:48:19.225Z,99407
2017-11-23T09:50:48.398Z,99406
2017-11-23T09:53:17.614Z,99406
2017-11-23T09:55:46.998Z,99415
2017-11-23T09:58:16.192Z,99408
2017-11-23T10:00:45.311Z,99419
2017-11-23T10:03:16.223Z,99426
2017-11-23T10:05:45.332Z,99419
2017-11-23T10:08:15.222Z,99414
2017-11-23T10:10:45.188Z,99418
2017-11-23T10:13:15.112Z,99395
2017-11-23T10:15:44.255Z,99397
2017-11-23T10:18:13.531Z,99396
2017-11-23T10:20:42.659Z,99391
2017-11-23T10:23:12.673Z,99384
2017-11-23T10:25:43.398Z,99368
2017-11-23T10:28:12.519Z,99375
2017-11-23T10:30:41.645Z,99367
2017-11-23T10:33:11.999Z,99365
2017-11-23T10:35:41.573Z,99361
2017-11-23T10:38:10.781Z,99356
2017-11-23T10:40:40.820Z,99342
2017-11-23T10:43:09.921Z,99347
2017-11-23T10:45:39.047Z,99339
2017-11-23T10:48:08.267Z,99348
2017-11-23T10:50:38.600Z,99348
2017-11-23T10:53:08.612Z,99339
2017-11-23T10:55:37.947Z,99335
2017-11-23T10:58:08.041Z,99347
2017-11-23T11:00:37.219Z,99344
2017-11-23T11:03:06.713Z,99347
2017-11-23T11:05:36.578Z,99332
2017-11-23T11:08:05.745Z,99330
2017-11-23T11:10:34.990Z,99343
2017-11-23T11:13:04.117Z,99333
2017-11-23T11:15:33.236Z,99326
2017-11-23T11:18:02.592Z,99326
2017-11-23T11:20:33.500Z,99327
2017-11-23T11:23:02.625Z,99324
2017-11-23T11:25:32.227Z,99337
2017-11-23T11:28:02.299Z,99324
2017-11-23T11:30:31.446Z,99316
2017-11-23T11:33:01.087Z,99325
2017-11-23T11:35:30.249Z,99327
2017-11-23T11:37:59.448Z,99322
2017-11-23T11:40:28.931Z,99317
2017-11-23T11:42:58.075Z,99319
2017-11-23T11:45:27.268Z,99319
2017-11-23T11:47:57.594Z,99325
2017-11-23T11:50:26.766Z,99333
2017-11-23T11:52:55.946Z,99322
2017-11-23T11:55:26.005Z,99343
2017-11-23T11:57:55.193Z,99326
2017-11-23T12:00:25.112Z,99333
2017-11-23T12:02:55.539Z,99335
2017-11-23T12:05:24.937Z,99341
2017-11-23T12:07:54.180Z,99360
2017-11-23T12:10:24.212Z,99350
2017-11-23T12:12:53.651Z,99356
2017-11-23T12:15:33.914Z,99349
2017-11-23T12:18:20.757Z,99358
2017-11-23T12:21:09.560Z,99350
2017-11-23T12:23:46.671Z,99362
2017-11-23T12:26:16.165Z,99356
2017-11-23T12:31:53.442Z,99349
2017-11-23T12:34:22.547Z,99355
2017-11-23T12:36:51.785Z,99362
2017-11-23T12:39:20.966Z,99361
2017-11-23T12:41:50.171Z,99367
2017-11-23T12:44:20.162Z,99375
2017-11-23T12:46:51.576Z,99364
2017-11-23T12:49:20.741Z,99365
2017-11-23T12:51:49.975Z,99364
2017-11-23T12:54:20.415Z,99373
2017-11-23T12:56:50.501Z,99375
2017-11-23T12:59:19.732Z,99369
2017-11-23T13:01:48.940Z,99381
2017-11-23T13:04:18.032Z,99394
2017-11-23T13:06:47.946Z,99387
2017-11-23T13:09:17.142Z,99380
2017-11-23T13:11:46.244Z,99381
2017-11-23T13:14:15.349Z,99394
2017-11-23T13:16:45.390Z,99399
2017-11-23T13:19:14.548Z,99419
2017-11-23T13:21:43.676Z,99411
2017-11-23T13:24:12.868Z,99417
2017-11-23T13:26:42.092Z,99415
2017-11-23T13:29:11.219Z,99442
2017-11-23T13:31:40.534Z,99436
2017-11-23T13:34:09.634Z,99437
2017-11-23T13:36:38.727Z,99445
2017-11-23T13:39:08.853Z,99449
2017-11-23T13:41:38.039Z,99444
2017-11-23T13:44:07.942Z,99446
2017-11-23T13:46:37.511Z,99456
2017-11-23T13:49:06.665Z,99439
2017-11-23T13:51:35.769Z,99467
2017-11-23T13:54:05.736Z,99458
2017-11-23T13:56:34.879Z,99464
2017-11-23T13:59:03.977Z,99469
2017-11-23T14:01:33.287Z,99475
2017-11-23T14:04:02.429Z,99477
2017-11-23T14:06:32.470Z,99473
2017-11-23T14:09:01.821Z,99493
2017-11-23T14:11:31.096Z,99497
2017-11-23T14:14:00.288Z,99503
2017-11-23T14:16:30.367Z,99496
2017-11-23T14:19:00.323Z,99489
2017-11-23T14:21:29.654Z,99492
2017-11-23T14:23:59.549Z,99498
2017-11-23T14:26:28.748Z,99500
2017-11-23T14:28:57.958Z,99496
2017-11-23T14:31:27.568Z,99511
2017-11-23T14:33:56.733Z,99511
2017-11-23T14:36:25.948Z,99514
2017-11-23T14:38:55.249Z,99510
2017-11-23T14:41:24.445Z,99509
2017-11-23T14:43:53.830Z,99507
2017-11-23T14:46:24.682Z,99517
2017-11-23T14:48:53.879Z,99515
2017-11-23T14:51:23.077Z,99513
2017-11-23T14:53:52.483Z,99521
2017-11-23T14:56:22.604Z,99522
2017-11-23T14:58:51.913Z,99531
2017-11-23T15:01:21.183Z,99527
2017-11-23T15:03:50.509Z,99531
2017-11-23T15:06:19.690Z,99520
2017-11-23T15:08:49.601Z,99535
2017-11-23T15:11:18.713Z,99532
2017-11-23T15:13:48.632Z,99540
2017-11-23T15:16:19.649Z,99547
2017-11-23T15:18:48.762Z,99551
2017-11-23T15:21:17.919Z,99540
2017-11-23T15:23:47.057Z,99543
2017-11-23T15:26:16.158Z,99546
2017-11-23T15:28:46.020Z,99544
2017-11-23T15:31:15.160Z,99545
2017-11-23T15:33:44.273Z,99548
2017-11-23T15:36:13.621Z,99533
2017-11-23T15:38:42.778Z,99543
2017-11-23T15:41:11.907Z,99536
2017-11-23T15:43:41.032Z,99545
2017-11-23T15:46:11.163Z,99546
2017-11-23T15:48:41.276Z,99553
2017-11-23T15:51:10.410Z,99555
2017-11-23T15:53:39.654Z,99566
2017-11-23T15:56:08.768Z,99560
2017-11-23T15:58:37.974Z,99566
2017-11-23T16:01:08.115Z,99569
2017-11-23T16:03:37.238Z,99564
2017-11-23T16:06:08.092Z,99583
2017-11-23T16:08:39.910Z,99590
2017-11-23T16:11:09.055Z,99622
2017-11-23T16:13:38.282Z,99647
2017-11-23T16:16:07.994Z,99666
2017-11-23T16:18:37.718Z,99674
2017-11-23T16:21:08.812Z,99681
2017-11-23T16:23:38.056Z,99691
2017-11-23T16:26:07.362Z,99681
2017-11-23T16:28:36.659Z,99684
2017-11-23T16:31:05.899Z,99700
2017-11-23T16:33:35.052Z,99704
2017-11-23T16:36:04.356Z,99711
2017-11-23T16:38:33.512Z,99722
2017-11-23T16:41:04.356Z,99743
2017-11-23T16:43:52.640Z,99744
2017-11-23T16:46:27.393Z,99751
2017-11-23T16:49:04.959Z,99758
2017-11-23T16:54:41.962Z,99758
2017-11-23T16:57:16.744Z,99749
2017-11-23T16:59:48.871Z,99757
2017-11-23T17:02:23.414Z,99749
2017-11-23T17:05:00.042Z,99762
2017-11-23T17:07:42.632Z,99763
2017-11-23T17:10:18.621Z,99770
2017-11-23T17:13:01.039Z,99775
2017-11-23T17:18:52.085Z,99774
2017-11-23T17:21:21.782Z,99790
2017-11-23T17:23:53.684Z,99799
2017-11-23T17:26:23.975Z,99812
2017-11-23T17:28:53.179Z,99832
2017-11-23T17:31:22.476Z,99832
2017-11-23T17:33:52.292Z,99850
2017-11-23T17:36:21.440Z,99859
2017-11-23T17:38:50.781Z,99862
2017-11-23T17:41:21.416Z,99862
2017-11-23T17:43:50.644Z,99872
2017-11-23T17:46:19.886Z,99882
2017-11-23T17:48:50.009Z,99886
2017-11-23T17:51:19.987Z,99881
2017-11-23T17:53:49.487Z,99896
2017-11-23T17:56:18.847Z,99905
2017-11-23T17:58:48.051Z,99899
2017-11-23T18:01:17.184Z,99906
2017-11-23T18:03:46.320Z,99915
2017-11-23T18:06:16.530Z,99911
2017-11-23T18:08:46.503Z,99920
2017-11-23T18:11:15.663Z,99927
2017-11-23T18:13:44.867Z,99931
2017-11-23T18:16:14.054Z,99946
2017-11-23T18:18:44.047Z,99956
2017-11-23T18:21:13.901Z,99955
2017-11-23T18:23:43.027Z,99959
2017-11-23T18:26:13.934Z,99970
2017-11-23T18:28:43.885Z,99976
2017-11-23T18:31:13.043Z,99976
2017-11-23T18:33:43.267Z,99986
2017-11-23T18:36:12.429Z,99985
2017-11-23T18:38:41.517Z,99989
2017-11-23T18:41:12.462Z,99984
2017-11-23T18:43:41.594Z,99988
2017-11-23T18:46:11.604Z,99991
2017-11-23T18:48:41.641Z,99995
2017-11-23T18:51:11.247Z,99994
2017-11-23T18:53:41.185Z,100003
2017-11-23T18:56:11.382Z,100009
2017-11-23T18:58:40.664Z,100017
2017-11-23T19:01:09.763Z,100023
2017-11-23T19:03:39.940Z,100027
2017-11-23T19:06:10.052Z,100034
2017-11-23T19:08:39.164Z,100047
2017-11-23T19:11:08.297Z,100051
2017-11-23T19:13:37.444Z,100043
2017-11-23T19:16:07.343Z,100047
2017-11-23T19:18:36.766Z,100054
2017-11-23T19:21:05.919Z,100067
2017-11-23T19:23:35.143Z,100078
2017-11-23T19:26:04.841Z,100085
2017-11-23T19:28:34.034Z,100088
2017-11-23T19:31:03.945Z,100098
2017-11-23T19:33:33.273Z,100103
2017-11-23T19:36:02.378Z,100113
2017-11-23T19:38:32.577Z,100113
2017-11-23T19:41:08.680Z,100117
2017-11-23T19:43:37.819Z,100115
2017-11-23T19:46:07.023Z,100120
2017-11-23T19:48:36.922Z,100130
2017-11-23T19:51:07.577Z,100131
2017-11-23T19:53:36.725Z,100130
2017-11-23T19:56:07.219Z,100146
2017-11-23T19:58:36.350Z,100142
2017-11-23T20:01:05.511Z,100146
2017-11-23T20:03:35.614Z,100145
2017-11-23T20:06:04.827Z,100142
2017-11-23T20:08:35.942Z,100140
2017-11-23T20:11:05.096Z,100141
2017-11-23T20:13:34.181Z,100140
2017-11-23T20:16:03.293Z,100145
2017-11-23T20:18:33.324Z,100148
2017-11-23T20:21:02.516Z,100154
2017-11-23T20:23:31.688Z,100152
2017-11-23T20:26:00.941Z,100155
2017-11-23T20:28:30.083Z,100158
2017-11-23T20:30:59.383Z,100156
2017-11-23T20:33:28.743Z,100164
2017-11-23T20:35:58.170Z,100165
2017-11-23T20:38:28.090Z,100172
2017-11-23T20:41:01.864Z,100166
2017-11-23T20:43:30.999Z,100163
2017-11-23T20:46:00.184Z,100167
2017-11-23T20:48:30.596Z,100164
2017-11-23T20:50:59.840Z,100163
2017-11-23T20:53:29.114Z,100165
2017-11-23T20:55:58.717Z,100169
2017-11-23T20:58:29.246Z,100163
2017-11-23T21:00:58.457Z,100164
2017-11-23T21:03:27.777Z,100173
2017-11-23T21:05:57.026Z,100176
2017-11-23T21:08:26.223Z,100180
2017-11-23T21:10:58.013Z,100184
2017-11-23T21:13:28.202Z,100189
2017-11-23T21:15:57.585Z,100185
2017-11-23T21:18:28.253Z,100191
2017-11-23T21:21:00.071Z,100193
2017-11-23T21:23:29.275Z,100194
2017-11-23T21:25:58.773Z,100186
2017-11-23T21:28:27.929Z,100195
2017-11-23T21:30:57.932Z,100193
2017-11-23T21:33:27.144Z,100192
2017-11-23T21:35:56.393Z,100196
2017-11-23T21:38:26.514Z,100193
2017-11-23T21:40:55.757Z,100190
2017-11-23T21:43:24.990Z,100196
2017-11-23T21:45:55.520Z,100193
2017-11-23T21:48:24.841Z,100194
2017-11-23T21:50:54.779Z,100200
2017-11-23T21:53:25.453Z,100211
2017-11-23T21:55:57.688Z,100211
2017-11-23T21:58:27.390Z,100209
2017-11-23T22:00:56.610Z,100213
2017-11-23T22:03:25.862Z,100215
2017-11-23T22:05:55.222Z,100223
2017-11-23T22:08:24.396Z,100219
2017-11-23T22:10:53.860Z,100223
2017-11-23T22:13:23.912Z,100227
2017-11-23T22:15:53.418Z,100228
2017-11-23T22:18:22.547Z,100241
2017-11-23T22:20:52.736Z,100239
2017-11-23T22:23:22.887Z,100244
2017-11-23T22:25:53.001Z,100246
2017-11-23T22:28:22.234Z,100240
2017-11-23T22:30:52.119Z,100242
2017-11-23T22:33:21.413Z,100248
2017-11-23T22:35:51.717Z,100247
2017-11-23T22:38:22.612Z,100247
2017-11-23T22:40:52.732Z,100242
2017-11-23T22:43:21.987Z,100236
2017-11-23T22:45:51.193Z,100242
2017-11-23T22:48:20.374Z,100247
2017-11-23T22:50:49.517Z,100249
2017-11-23T22:53:19.753Z,100253
2017-11-23T22:55:49.711Z,100258
2017-11-23T22:58:22.134Z,100262
2017-11-23T23:00:54.762Z,100265
2017-11-23T23:03:24.964Z,100267
2017-11-23T23:05:54.223Z,100270
2017-11-23T23:08:23.519Z,100272
2017-11-23T23:10:54.190Z,100267
2017-11-23T23:13:23.598Z,100270
2017-11-23T23:15:53.234Z,100273
2017-11-23T23:18:22.344Z,100272
2017-11-23T23:20:51.541Z,100280
2017-11-23T23:23:20.743Z,100281
2017-11-23T23:25:49.928Z,100284
2017-11-23T23:28:19.855Z,100286
2017-11-23T23:30:48.997Z,100277
2017-11-23T23:33:18.129Z,100276
2017-11-23T23:35:47.991Z,100266
2017-11-23T23:38:17.117Z,100263
2017-11-23T23:40:47.172Z,100271
2017-11-23T23:43:16.269Z,100271
2017-11-23T23:45:45.391Z,100274
2017-11-23T23:48:14.542Z,100276
2017-11-23T23:50:43.640Z,100279
2017-11-23T23:53:12.957Z,100278
2017-11-23T23:55:42.057Z,100285
2017-11-23T23:58:11.915Z,100294
